Catawba Heights, North Carolina
Current Conditions -  °F | °C
As of 12:52 PM on Tuesday 21 Oct 2014 (Local Time) from KCLT Reporting Station
Few Clouds Few Clouds  
Wind Chill: 72°   Ceiling: Unl
Heat Index: 72°   Visibility: 10mi
Dew Point: 46°   Wind: 5mph
Humidity: 40%   Direction: 300°WNW
Pressure: 29.93"   Gusts: NA
Location:  35.2342°N, 81.041°W
Report Text: KCLT 211652Z 30004KT 10SM FEW049 22/08 A2993 RMK AO2 SLP129 T02220078
Loading
Personal Weather Stations






























Interactive Weather Map New forecast layout! Learn more

10-Day Weather Forecast

Advertisements
Track Severe Weather on mobile